sensor_id;sensor_type;location;lat;lon;timestamp;temperature;humidity
26479;DHT22;14163;-26.142;27.992;2023-04-25T00:00:43;24.10;62.20
26479;DHT22;14163;-26.142;27.992;2023-04-25T00:03:14;24.10;62.20
26479;DHT22;14163;-26.142;27.992;2023-04-25T00:05:45;24.10;62.10
26479;DHT22;14163;-26.142;27.992;2023-04-25T00:08:15;24.10;62.20
26479;DHT22;14163;-26.142;27.992;2023-04-25T00:10:44;24.10;62.30
26479;DHT22;14163;-26.142;27.992;2023-04-25T00:13:13;24.10;62.50
26479;DHT22;14163;-26.142;27.992;2023-04-25T00:15:44;24.10;62.70
26479;DHT22;14163;-26.142;27.992;2023-04-25T00:18:16;24.10;62.50
26479;DHT22;14163;-26.142;27.992;2023-04-25T00:20:46;23.90;62.40
26479;DHT22;14163;-26.142;27.992;2023-04-25T00:23:16;23.40;63.00
26479;DHT22;14163;-26.142;27.992;2023-04-25T00:25:46;23.50;64.30
26479;DHT22;14163;-26.142;27.992;2023-04-25T00:28:16;23.20;63.90
26479;DHT22;14163;-26.142;27.992;2023-04-25T00:30:46;22.60;64.70
26479;DHT22;14163;-26.142;27.992;2023-04-25T00:33:17;22.50;65.50
26479;DHT22;14163;-26.142;27.992;2023-04-25T00:35:46;22.90;65.10
26479;DHT22;14163;-26.142;27.992;2023-04-25T00:38:15;23.00;64.90
26479;DHT22;14163;-26.142;27.992;2023-04-25T00:40:45;22.70;65.20
26479;DHT22;14163;-26.142;27.992;2023-04-25T00:43:14;22.90;65.60
26479;DHT22;14163;-26.142;27.992;2023-04-25T00:45:43;23.10;65.80
26479;DHT22;14163;-26.142;27.992;2023-04-25T00:48:16;23.20;65.80
26479;DHT22;14163;-26.142;27.992;2023-04-25T00:50:52;23.30;65.40
26479;DHT22;14163;-26.142;27.992;2023-04-25T00:53:22;23.30;65.60
26479;DHT22;14163;-26.142;27.992;2023-04-25T00:55:52;23.40;65.90
26479;DHT22;14163;-26.142;27.992;2023-04-25T00:58:22;23.40;65.60
26479;DHT22;14163;-26.142;27.992;2023-04-25T01:00:52;23.50;65.40
26479;DHT22;14163;-26.142;27.992;2023-04-25T01:03:24;23.50;65.50
26479;DHT22;14163;-26.142;27.992;2023-04-25T01:05:55;23.40;65.70
26479;DHT22;14163;-26.142;27.992;2023-04-25T01:08:24;23.50;65.00
26479;DHT22;14163;-26.142;27.992;2023-04-25T01:10:54;23.50;64.30
26479;DHT22;14163;-26.142;27.992;2023-04-25T01:13:23;23.50;63.90
26479;DHT22;14163;-26.142;27.992;2023-04-25T01:15:52;23.00;64.30
26479;DHT22;14163;-26.142;27.992;2023-04-25T01:18:23;23.00;64.50
26479;DHT22;14163;-26.142;27.992;2023-04-25T01:20:53;23.20;64.20
26479;DHT22;14163;-26.142;27.992;2023-04-25T01:23:24;23.30;64.10
26479;DHT22;14163;-26.142;27.992;2023-04-25T01:25:54;23.30;64.10
26479;DHT22;14163;-26.142;27.992;2023-04-25T01:28:24;23.30;64.20
26479;DHT22;14163;-26.142;27.992;2023-04-25T01:30:53;23.10;64.40
26479;DHT22;14163;-26.142;27.992;2023-04-25T01:33:23;23.20;64.80
26479;DHT22;14163;-26.142;27.992;2023-04-25T01:35:52;23.30;65.00
26479;DHT22;14163;-26.142;27.992;2023-04-25T01:38:23;23.30;65.00
26479;DHT22;14163;-26.142;27.992;2023-04-25T01:40:52;23.40;64.60
26479;DHT22;14163;-26.142;27.992;2023-04-25T01:43:22;23.40;65.00
26479;DHT22;14163;-26.142;27.992;2023-04-25T01:45:51;23.50;65.10
26479;DHT22;14163;-26.142;27.992;2023-04-25T01:48:21;23.40;65.50
26479;DHT22;14163;-26.142;27.992;2023-04-25T01:50:50;23.40;64.60
26479;DHT22;14163;-26.142;27.992;2023-04-25T01:53:19;23.30;65.20
26479;DHT22;14163;-26.142;27.992;2023-04-25T01:55:51;23.40;65.90
26479;DHT22;14163;-26.142;27.992;2023-04-25T01:58:21;23.40;64.40
26479;DHT22;14163;-26.142;27.992;2023-04-25T02:00:50;23.20;65.80
26479;DHT22;14163;-26.142;27.992;2023-04-25T02:03:19;23.20;66.70
26479;DHT22;14163;-26.142;27.992;2023-04-25T02:05:48;23.30;67.70
26479;DHT22;14163;-26.142;27.992;2023-04-25T02:08:18;23.30;67.80
26479;DHT22;14163;-26.142;27.992;2023-04-25T02:10:49;23.30;68.00
26479;DHT22;14163;-26.142;27.992;2023-04-25T02:13:18;23.30;68.40
26479;DHT22;14163;-26.142;27.992;2023-04-25T02:15:47;23.20;68.90
26479;DHT22;14163;-26.142;27.992;2023-04-25T02:18:16;23.10;67.70
26479;DHT22;14163;-26.142;27.992;2023-04-25T02:20:46;23.00;67.10
26479;DHT22;14163;-26.142;27.992;2023-04-25T02:23:15;22.90;67.10
26479;DHT22;14163;-26.142;27.992;2023-04-25T02:25:46;23.00;68.40
26479;DHT22;14163;-26.142;27.992;2023-04-25T02:28:17;23.10;68.80
26479;DHT22;14163;-26.142;27.992;2023-04-25T02:30:47;23.00;69.10
26479;DHT22;14163;-26.142;27.992;2023-04-25T02:33:16;23.00;69.50
26479;DHT22;14163;-26.142;27.992;2023-04-25T02:35:45;22.90;70.10
26479;DHT22;14163;-26.142;27.992;2023-04-25T02:38:14;22.80;70.60
26479;DHT22;14163;-26.142;27.992;2023-04-25T02:40:44;22.60;70.60
26479;DHT22;14163;-26.142;27.992;2023-04-25T02:43:13;22.60;71.10
26479;DHT22;14163;-26.142;27.992;2023-04-25T02:45:44;22.60;71.30
26479;DHT22;14163;-26.142;27.992;2023-04-25T02:48:13;22.60;71.00
26479;DHT22;14163;-26.142;27.992;2023-04-25T02:50:43;22.60;71.30
26479;DHT22;14163;-26.142;27.992;2023-04-25T02:53:12;22.60;70.90
26479;DHT22;14163;-26.142;27.992;2023-04-25T02:55:42;22.50;71.10
26479;DHT22;14163;-26.142;27.992;2023-04-25T02:58:12;22.50;71.40
26479;DHT22;14163;-26.142;27.992;2023-04-25T03:00:44;22.40;71.30
26479;DHT22;14163;-26.142;27.992;2023-04-25T03:03:13;22.40;71.80
26479;DHT22;14163;-26.142;27.992;2023-04-25T03:05:45;22.40;72.00
26479;DHT22;14163;-26.142;27.992;2023-04-25T03:08:17;22.30;71.90
26479;DHT22;14163;-26.142;27.992;2023-04-25T03:10:46;22.30;72.30
26479;DHT22;14163;-26.142;27.992;2023-04-25T03:13:17;22.20;69.60
26479;DHT22;14163;-26.142;27.992;2023-04-25T03:15:47;22.20;70.50
26479;DHT22;14163;-26.142;27.992;2023-04-25T03:18:17;22.30;70.10
26479;DHT22;14163;-26.142;27.992;2023-04-25T03:20:46;22.30;69.60
26479;DHT22;14163;-26.142;27.992;2023-04-25T03:23:15;22.30;69.70
26479;DHT22;14163;-26.142;27.992;2023-04-25T03:25:44;22.30;69.30
26479;DHT22;14163;-26.142;27.992;2023-04-25T03:28:13;22.30;69.30
26479;DHT22;14163;-26.142;27.992;2023-04-25T03:30:42;22.30;68.70
26479;DHT22;14163;-26.142;27.992;2023-04-25T03:33:13;22.30;68.60
26479;DHT22;14163;-26.142;27.992;2023-04-25T03:35:42;22.30;68.50
26479;DHT22;14163;-26.142;27.992;2023-04-25T03:38:14;22.30;67.80
26479;DHT22;14163;-26.142;27.992;2023-04-25T03:40:43;22.20;67.60
26479;DHT22;14163;-26.142;27.992;2023-04-25T03:43:12;22.20;67.70
26479;DHT22;14163;-26.142;27.992;2023-04-25T03:45:41;22.10;68.00
26479;DHT22;14163;-26.142;27.992;2023-04-25T03:48:14;22.10;67.70
26479;DHT22;14163;-26.142;27.992;2023-04-25T03:50:43;22.10;67.20
26479;DHT22;14163;-26.142;27.992;2023-04-25T03:53:12;22.10;67.50
26479;DHT22;14163;-26.142;27.992;2023-04-25T03:55:41;22.10;67.00
26479;DHT22;14163;-26.142;27.992;2023-04-25T03:58:12;22.10;66.90
26479;DHT22;14163;-26.142;27.992;2023-04-25T04:00:41;22.10;66.20
26479;DHT22;14163;-26.142;27.992;2023-04-25T04:03:10;22.10;65.80
26479;DHT22;14163;-26.142;27.992;2023-04-25T04:05:41;22.10;66.00
26479;DHT22;14163;-26.142;27.992;2023-04-25T04:08:10;22.10;65.80
26479;DHT22;14163;-26.142;27.992;2023-04-25T06:19:39;19.60;76.70
26479;DHT22;14163;-26.142;27.992;2023-04-25T06:22:09;18.90;76.50
26479;DHT22;14163;-26.142;27.992;2023-04-25T06:24:40;19.60;74.70
26479;DHT22;14163;-26.142;27.992;2023-04-25T06:27:09;20.50;73.00
26479;DHT22;14163;-26.142;27.992;2023-04-25T06:29:38;21.30;71.70
26479;DHT22;14163;-26.142;27.992;2023-04-25T06:32:07;21.90;69.70
26479;DHT22;14163;-26.142;27.992;2023-04-25T06:34:38;22.50;68.80
26479;DHT22;14163;-26.142;27.992;2023-04-25T06:37:08;22.90;67.70
26479;DHT22;14163;-26.142;27.992;2023-04-25T06:39:37;23.10;66.90
26479;DHT22;14163;-26.142;27.992;2023-04-25T06:42:07;23.40;67.10
26479;DHT22;14163;-26.142;27.992;2023-04-25T06:44:37;23.50;66.40
26479;DHT22;14163;-26.142;27.992;2023-04-25T06:47:06;23.60;66.30
26479;DHT22;14163;-26.142;27.992;2023-04-25T06:49:35;23.80;65.40
26479;DHT22;14163;-26.142;27.992;2023-04-25T06:52:06;23.90;65.10
26479;DHT22;14163;-26.142;27.992;2023-04-25T06:54:36;24.00;65.20
26479;DHT22;14163;-26.142;27.992;2023-04-25T06:57:05;24.10;64.30
26479;DHT22;14163;-26.142;27.992;2023-04-25T06:59:34;24.10;64.70
26479;DHT22;14163;-26.142;27.992;2023-04-25T07:02:03;24.20;63.80
26479;DHT22;14163;-26.142;27.992;2023-04-25T07:04:32;24.30;63.50
26479;DHT22;14163;-26.142;27.992;2023-04-25T07:07:02;24.40;63.30
26479;DHT22;14163;-26.142;27.992;2023-04-25T07:09:32;24.50;62.40
26479;DHT22;14163;-26.142;27.992;2023-04-25T07:12:02;24.60;62.60
26479;DHT22;14163;-26.142;27.992;2023-04-25T07:14:31;24.70;63.70
26479;DHT22;14163;-26.142;27.992;2023-04-25T07:17:00;24.70;63.50
26479;DHT22;14163;-26.142;27.992;2023-04-25T07:19:29;24.80;63.10
26479;DHT22;14163;-26.142;27.992;2023-04-25T07:21:58;24.80;62.80
26479;DHT22;14163;-26.142;27.992;2023-04-25T07:24:28;24.80;63.00
26479;DHT22;14163;-26.142;27.992;2023-04-25T07:26:59;24.90;62.00
26479;DHT22;14163;-26.142;27.992;2023-04-25T07:29:28;24.90;62.80
26479;DHT22;14163;-26.142;27.992;2023-04-25T07:31:58;25.00;62.80
26479;DHT22;14163;-26.142;27.992;2023-04-25T07:34:28;24.90;59.20
26479;DHT22;14163;-26.142;27.992;2023-04-25T07:36:57;24.80;59.40
26479;DHT22;14163;-26.142;27.992;2023-04-25T07:39:27;25.00;61.20
26479;DHT22;14163;-26.142;27.992;2023-04-25T07:41:58;25.10;62.10
26479;DHT22;14163;-26.142;27.992;2023-04-25T07:44:29;25.10;61.60
26479;DHT22;14163;-26.142;27.992;2023-04-25T07:46:58;25.20;62.00
26479;DHT22;14163;-26.142;27.992;2023-04-25T07:49:27;25.20;61.80
26479;DHT22;14163;-26.142;27.992;2023-04-25T07:51:56;25.30;62.50
26479;DHT22;14163;-26.142;27.992;2023-04-25T07:54:25;25.30;61.20
26479;DHT22;14163;-26.142;27.992;2023-04-25T07:57:14;25.50;59.70
26479;DHT22;14163;-26.142;27.992;2023-04-25T08:00:00;25.40;60.00
26479;DHT22;14163;-26.142;27.992;2023-04-25T08:02:29;25.30;59.20
26479;DHT22;14163;-26.142;27.992;2023-04-25T08:05:01;25.30;59.40
26479;DHT22;14163;-26.142;27.992;2023-04-25T08:07:30;25.10;60.00
26479;DHT22;14163;-26.142;27.992;2023-04-25T08:09:59;25.20;61.50
26479;DHT22;14163;-26.142;27.992;2023-04-25T08:12:31;25.50;61.00
26479;DHT22;14163;-26.142;27.992;2023-04-25T08:15:00;25.30;61.70
26479;DHT22;14163;-26.142;27.992;2023-04-25T08:17:29;25.30;62.30
26479;DHT22;14163;-26.142;27.992;2023-04-25T08:19:59;25.60;61.90
26479;DHT22;14163;-26.142;27.992;2023-04-25T08:22:29;25.50;61.70
26479;DHT22;14163;-26.142;27.992;2023-04-25T08:24:59;25.80;62.30
26479;DHT22;14163;-26.142;27.992;2023-04-25T08:27:29;25.90;62.00
26479;DHT22;14163;-26.142;27.992;2023-04-25T08:29:59;25.90;61.90
26479;DHT22;14163;-26.142;27.992;2023-04-25T08:32:28;26.10;61.70
26479;DHT22;14163;-26.142;27.992;2023-04-25T08:34:58;26.10;61.60
26479;DHT22;14163;-26.142;27.992;2023-04-25T08:37:27;25.90;61.40
26479;DHT22;14163;-26.142;27.992;2023-04-25T08:39:56;25.80;62.40
26479;DHT22;14163;-26.142;27.992;2023-04-25T08:42:29;25.70;62.30
26479;DHT22;14163;-26.142;27.992;2023-04-25T08:45:01;25.50;63.70
26479;DHT22;14163;-26.142;27.992;2023-04-25T08:47:34;25.70;65.00
26479;DHT22;14163;-26.142;27.992;2023-04-25T08:50:04;26.00;65.40
26479;DHT22;14163;-26.142;27.992;2023-04-25T08:52:37;26.00;66.30
26479;DHT22;14163;-26.142;27.992;2023-04-25T08:55:10;26.20;66.30
26479;DHT22;14163;-26.142;27.992;2023-04-25T08:57:43;25.80;65.10
26479;DHT22;14163;-26.142;27.992;2023-04-25T09:00:13;25.70;65.80
26479;DHT22;14163;-26.142;27.992;2023-04-25T09:02:43;25.40;65.40
26479;DHT22;14163;-26.142;27.992;2023-04-25T09:05:14;25.30;65.90
26479;DHT22;14163;-26.142;27.992;2023-04-25T09:07:43;25.20;66.10
26479;DHT22;14163;-26.142;27.992;2023-04-25T09:10:12;25.00;67.20
26479;DHT22;14163;-26.142;27.992;2023-04-25T09:12:43;25.10;68.50
26479;DHT22;14163;-26.142;27.992;2023-04-25T09:15:13;25.30;67.40
26479;DHT22;14163;-26.142;27.992;2023-04-25T09:17:42;25.50;67.90
26479;DHT22;14163;-26.142;27.992;2023-04-25T09:20:12;25.40;67.20
26479;DHT22;14163;-26.142;27.992;2023-04-25T09:22:42;25.30;68.50
26479;DHT22;14163;-26.142;27.992;2023-04-25T09:25:14;25.60;68.20
26479;DHT22;14163;-26.142;27.992;2023-04-25T09:27:54;26.10;67.00
26479;DHT22;14163;-26.142;27.992;2023-04-25T09:30:30;26.50;66.50
26479;DHT22;14163;-26.142;27.992;2023-04-25T09:33:05;26.30;67.40
26479;DHT22;14163;-26.142;27.992;2023-04-25T09:35:38;26.20;68.90
26479;DHT22;14163;-26.142;27.992;2023-04-25T09:38:12;25.90;68.70
26479;DHT22;14163;-26.142;27.992;2023-04-25T09:40:45;26.00;69.30
26479;DHT22;14163;-26.142;27.992;2023-04-25T09:43:22;26.50;69.20
26479;DHT22;14163;-26.142;27.992;2023-04-25T09:45:53;26.90;69.30
26479;DHT22;14163;-26.142;27.992;2023-04-25T09:48:25;27.10;69.60
26479;DHT22;14163;-26.142;27.992;2023-04-25T09:51:08;27.50;70.00
26479;DHT22;14163;-26.142;27.992;2023-04-25T09:53:38;27.70;69.60
26479;DHT22;14163;-26.142;27.992;2023-04-25T09:56:12;28.00;69.00
26479;DHT22;14163;-26.142;27.992;2023-04-25T09:58:43;28.30;68.40
26479;DHT22;14163;-26.142;27.992;2023-04-25T10:01:12;28.50;68.10
26479;DHT22;14163;-26.142;27.992;2023-04-25T10:03:41;28.30;69.40
26479;DHT22;14163;-26.142;27.992;2023-04-25T10:06:14;28.00;70.70
26479;DHT22;14163;-26.142;27.992;2023-04-25T10:08:47;27.90;71.30
26479;DHT22;14163;-26.142;27.992;2023-04-25T10:11:21;28.10;73.40
26479;DHT22;14163;-26.142;27.992;2023-04-25T10:13:53;28.80;73.40
26479;DHT22;14163;-26.142;27.992;2023-04-25T10:16:22;29.00;73.40
26479;DHT22;14163;-26.142;27.992;2023-04-25T10:18:53;28.60;74.70
26479;DHT22;14163;-26.142;27.992;2023-04-25T10:21:22;28.80;76.30
26479;DHT22;14163;-26.142;27.992;2023-04-25T10:23:54;29.50;74.20
26479;DHT22;14163;-26.142;27.992;2023-04-25T10:26:23;30.20;72.30
26479;DHT22;14163;-26.142;27.992;2023-04-25T10:28:59;30.70;72.50
26479;DHT22;14163;-26.142;27.992;2023-04-25T10:31:30;30.80;72.30
26479;DHT22;14163;-26.142;27.992;2023-04-25T10:34:00;31.10;72.70
26479;DHT22;14163;-26.142;27.992;2023-04-25T10:36:32;31.30;70.50
26479;DHT22;14163;-26.142;27.992;2023-04-25T10:39:04;31.20;71.90
26479;DHT22;14163;-26.142;27.992;2023-04-25T10:41:53;31.40;71.40
26479;DHT22;14163;-26.142;27.992;2023-04-25T10:44:29;31.10;72.30
26479;DHT22;14163;-26.142;27.992;2023-04-25T10:46:59;30.80;73.30
26479;DHT22;14163;-26.142;27.992;2023-04-25T10:49:32;30.10;74.00
26479;DHT22;14163;-26.142;27.992;2023-04-25T10:52:26;29.40;76.10
26479;DHT22;14163;-26.142;27.992;2023-04-25T10:54:57;29.10;77.00
26479;DHT22;14163;-26.142;27.992;2023-04-25T10:57:37;28.90;77.00
26479;DHT22;14163;-26.142;27.992;2023-04-25T11:00:12;28.80;78.00
26479;DHT22;14163;-26.142;27.992;2023-04-25T11:02:43;28.60;79.20
26479;DHT22;14163;-26.142;27.992;2023-04-25T11:05:20;28.50;78.40
26479;DHT22;14163;-26.142;27.992;2023-04-25T11:07:54;29.40;76.50
26479;DHT22;14163;-26.142;27.992;2023-04-25T11:10:26;30.20;74.80
26479;DHT22;14163;-26.142;27.992;2023-04-25T11:12:56;30.80;74.20
26479;DHT22;14163;-26.142;27.992;2023-04-25T11:15:27;30.90;73.40
26479;DHT22;14163;-26.142;27.992;2023-04-25T11:17:56;29.70;74.50
26479;DHT22;14163;-26.142;27.992;2023-04-25T11:20:26;29.20;75.20
26479;DHT22;14163;-26.142;27.992;2023-04-25T11:22:58;28.70;76.60
26479;DHT22;14163;-26.142;27.992;2023-04-25T11:25:28;28.80;78.00
26479;DHT22;14163;-26.142;27.992;2023-04-25T11:27:58;28.80;78.40
26479;DHT22;14163;-26.142;27.992;2023-04-25T11:30:30;29.10;78.30
26479;DHT22;14163;-26.142;27.992;2023-04-25T11:32:59;30.20;75.90
26479;DHT22;14163;-26.142;27.992;2023-04-25T11:35:30;30.40;74.30
26479;DHT22;14163;-26.142;27.992;2023-04-25T11:38:00;30.70;74.00
26479;DHT22;14163;-26.142;27.992;2023-04-25T11:40:30;30.80;71.80
26479;DHT22;14163;-26.142;27.992;2023-04-25T11:43:01;30.40;71.20
26479;DHT22;14163;-26.142;27.992;2023-04-25T11:45:32;30.50;71.60
26479;DHT22;14163;-26.142;27.992;2023-04-25T11:48:02;31.50;70.30
26479;DHT22;14163;-26.142;27.992;2023-04-25T11:50:32;32.20;70.30
26479;DHT22;14163;-26.142;27.992;2023-04-25T11:53:02;32.20;68.70
26479;DHT22;14163;-26.142;27.992;2023-04-25T11:55:31;32.20;69.00
26479;DHT22;14163;-26.142;27.992;2023-04-25T11:58:01;32.70;68.50
26479;DHT22;14163;-26.142;27.992;2023-04-25T12:00:32;33.30;67.60
26479;DHT22;14163;-26.142;27.992;2023-04-25T14:08:13;25.60;88.00
26479;DHT22;14163;-26.142;27.992;2023-04-25T14:10:42;25.70;88.10
26479;DHT22;14163;-26.142;27.992;2023-04-25T14:13:11;26.30;85.60
26479;DHT22;14163;-26.142;27.992;2023-04-25T14:15:41;26.90;84.70
26479;DHT22;14163;-26.142;27.992;2023-04-25T14:18:10;27.20;83.60
26479;DHT22;14163;-26.142;27.992;2023-04-25T14:20:39;27.10;83.10
26479;DHT22;14163;-26.142;27.992;2023-04-25T14:23:08;27.10;83.80
26479;DHT22;14163;-26.142;27.992;2023-04-25T14:25:39;27.10;84.20
26479;DHT22;14163;-26.142;27.992;2023-04-25T14:28:09;27.00;84.70
26479;DHT22;14163;-26.142;27.992;2023-04-25T14:30:38;27.20;84.80
26479;DHT22;14163;-26.142;27.992;2023-04-25T14:33:07;27.60;83.60
26479;DHT22;14163;-26.142;27.992;2023-04-25T14:35:37;27.70;83.00
26479;DHT22;14163;-26.142;27.992;2023-04-25T14:38:06;27.50;82.80
26479;DHT22;14163;-26.142;27.992;2023-04-25T14:40:35;27.30;82.90
26479;DHT22;14163;-26.142;27.992;2023-04-25T14:43:06;27.50;83.60
26479;DHT22;14163;-26.142;27.992;2023-04-25T14:45:35;27.90;82.00
26479;DHT22;14163;-26.142;27.992;2023-04-25T14:48:05;28.10;80.80
26479;DHT22;14163;-26.142;27.992;2023-04-25T14:50:34;28.10;80.90
26479;DHT22;14163;-26.142;27.992;2023-04-25T14:53:03;28.30;80.20
26479;DHT22;14163;-26.142;27.992;2023-04-25T14:55:33;28.40;79.80
26479;DHT22;14163;-26.142;27.992;2023-04-25T14:58:02;28.30;80.40
26479;DHT22;14163;-26.142;27.992;2023-04-25T15:00:33;28.20;80.90
26479;DHT22;14163;-26.142;27.992;2023-04-25T15:03:02;28.20;81.60
26479;DHT22;14163;-26.142;27.992;2023-04-25T15:05:32;28.20;81.90
26479;DHT22;14163;-26.142;27.992;2023-04-25T15:08:01;28.10;82.10
26479;DHT22;14163;-26.142;27.992;2023-04-25T15:10:31;27.80;83.20
26479;DHT22;14163;-26.142;27.992;2023-04-25T15:13:00;27.20;84.30
26479;DHT22;14163;-26.142;27.992;2023-04-25T15:15:29;27.00;85.10
26479;DHT22;14163;-26.142;27.992;2023-04-25T15:18:00;26.90;85.70
26479;DHT22;14163;-26.142;27.992;2023-04-25T15:20:30;27.10;86.00
26479;DHT22;14163;-26.142;27.992;2023-04-25T15:22:59;27.20;86.20
26479;DHT22;14163;-26.142;27.992;2023-04-25T15:25:30;27.30;86.50
26479;DHT22;14163;-26.142;27.992;2023-04-25T15:27:59;27.20;86.90
26479;DHT22;14163;-26.142;27.992;2023-04-25T15:30:28;26.90;87.80
26479;DHT22;14163;-26.142;27.992;2023-04-25T15:32:59;26.60;89.00
26479;DHT22;14163;-26.142;27.992;2023-04-25T15:35:28;26.60;89.30
26479;DHT22;14163;-26.142;27.992;2023-04-25T15:37:57;26.70;89.20
26479;DHT22;14163;-26.142;27.992;2023-04-25T15:40:27;26.60;89.90
26479;DHT22;14163;-26.142;27.992;2023-04-25T15:42:56;26.70;89.90
26479;DHT22;14163;-26.142;27.992;2023-04-25T15:45:25;26.70;90.10
26479;DHT22;14163;-26.142;27.992;2023-04-25T15:47:56;26.60;90.20
26479;DHT22;14163;-26.142;27.992;2023-04-25T15:50:27;26.60;90.30
26479;DHT22;14163;-26.142;27.992;2023-04-25T15:52:56;26.60;90.50
26479;DHT22;14163;-26.142;27.992;2023-04-25T15:55:25;26.50;90.60
26479;DHT22;14163;-26.142;27.992;2023-04-25T15:57:55;26.50;90.70
26479;DHT22;14163;-26.142;27.992;2023-04-25T16:00:24;26.40;90.90
26479;DHT22;14163;-26.142;27.992;2023-04-25T16:02:53;26.50;91.00
26479;DHT22;14163;-26.142;27.992;2023-04-25T16:05:22;26.40;91.20
26479;DHT22;14163;-26.142;27.992;2023-04-25T16:07:53;26.30;91.50
26479;DHT22;14163;-26.142;27.992;2023-04-25T16:10:23;26.30;91.60
26479;DHT22;14163;-26.142;27.992;2023-04-25T16:12:52;26.30;91.70
26479;DHT22;14163;-26.142;27.992;2023-04-25T16:15:21;26.40;91.80
26479;DHT22;14163;-26.142;27.992;2023-04-25T16:17:50;26.50;91.80
26479;DHT22;14163;-26.142;27.992;2023-04-25T16:20:20;26.70;91.60
26479;DHT22;14163;-26.142;27.992;2023-04-25T16:22:49;26.70;91.60
26479;DHT22;14163;-26.142;27.992;2023-04-25T16:26:31;26.50;91.60
26479;DHT22;14163;-26.142;27.992;2023-04-25T16:29:03;26.30;92.10
26479;DHT22;14163;-26.142;27.992;2023-04-25T16:31:33;26.30;92.50
26479;DHT22;14163;-26.142;27.992;2023-04-25T16:34:04;26.00;92.80
26479;DHT22;14163;-26.142;27.992;2023-04-25T16:36:33;26.00;93.10
26479;DHT22;14163;-26.142;27.992;2023-04-25T16:39:03;25.90;93.20
26479;DHT22;14163;-26.142;27.992;2023-04-25T16:41:36;26.00;93.40
26479;DHT22;14163;-26.142;27.992;2023-04-25T16:44:05;26.20;93.20
26479;DHT22;14163;-26.142;27.992;2023-04-25T16:46:35;26.40;93.10
26479;DHT22;14163;-26.142;27.992;2023-04-25T16:49:04;26.70;92.80
26479;DHT22;14163;-26.142;27.992;2023-04-25T16:51:34;26.80;92.70
26479;DHT22;14163;-26.142;27.992;2023-04-25T16:54:03;27.10;92.50
26479;DHT22;14163;-26.142;27.992;2023-04-25T16:56:34;27.20;92.40
26479;DHT22;14163;-26.142;27.992;2023-04-25T16:59:03;26.80;92.60
26479;DHT22;14163;-26.142;27.992;2023-04-25T17:01:34;26.50;93.00
26479;DHT22;14163;-26.142;27.992;2023-04-25T17:04:03;26.30;93.30
26479;DHT22;14163;-26.142;27.992;2023-04-25T17:06:33;26.20;93.70
26479;DHT22;14163;-26.142;27.992;2023-04-25T17:09:03;26.30;93.90
26479;DHT22;14163;-26.142;27.992;2023-04-25T17:11:35;26.30;93.70
26479;DHT22;14163;-26.142;27.992;2023-04-25T17:14:04;26.20;93.90
26479;DHT22;14163;-26.142;27.992;2023-04-25T17:16:37;25.90;94.30
26479;DHT22;14163;-26.142;27.992;2023-04-25T17:19:06;25.90;94.50
26479;DHT22;14163;-26.142;27.992;2023-04-25T17:21:35;26.00;94.60
26479;DHT22;14163;-26.142;27.992;2023-04-25T17:24:05;26.00;94.60
26479;DHT22;14163;-26.142;27.992;2023-04-25T17:26:38;26.10;94.60
26479;DHT22;14163;-26.142;27.992;2023-04-25T17:29:07;25.90;94.90
26479;DHT22;14163;-26.142;27.992;2023-04-25T17:31:36;25.80;95.00
26479;DHT22;14163;-26.142;27.992;2023-04-25T17:34:05;25.50;95.40
26479;DHT22;14163;-26.142;27.992;2023-04-25T17:36:35;25.40;95.70
26479;DHT22;14163;-26.142;27.992;2023-04-25T17:39:04;25.30;96.20
26479;DHT22;14163;-26.142;27.992;2023-04-25T17:41:39;25.30;96.60
26479;DHT22;14163;-26.142;27.992;2023-04-25T17:44:09;25.30;96.60
26479;DHT22;14163;-26.142;27.992;2023-04-25T17:46:38;25.20;96.90
26479;DHT22;14163;-26.142;27.992;2023-04-25T17:49:07;25.20;97.10
26479;DHT22;14163;-26.142;27.992;2023-04-25T17:51:37;25.40;97.30
26479;DHT22;14163;-26.142;27.992;2023-04-25T17:54:07;25.70;97.00
26479;DHT22;14163;-26.142;27.992;2023-04-25T17:56:38;25.80;96.80
26479;DHT22;14163;-26.142;27.992;2023-04-25T17:59:08;26.10;96.50
26479;DHT22;14163;-26.142;27.992;2023-04-25T18:01:37;26.40;96.20
26479;DHT22;14163;-26.142;27.992;2023-04-25T18:04:06;26.60;96.10
26479;DHT22;14163;-26.142;27.992;2023-04-25T18:06:36;26.70;96.00
26479;DHT22;14163;-26.142;27.992;2023-04-25T18:09:05;26.80;95.90
26479;DHT22;14163;-26.142;27.992;2023-04-25T18:11:43;26.80;96.00
26479;DHT22;14163;-26.142;27.992;2023-04-25T18:14:13;26.70;95.90
26479;DHT22;14163;-26.142;27.992;2023-04-25T18:16:43;26.60;96.20
26479;DHT22;14163;-26.142;27.992;2023-04-25T18:19:13;26.70;96.40
26479;DHT22;14163;-26.142;27.992;2023-04-25T18:21:47;26.80;96.50
26479;DHT22;14163;-26.142;27.992;2023-04-25T18:24:17;26.80;96.50
26479;DHT22;14163;-26.142;27.992;2023-04-25T18:26:49;26.80;96.10
26479;DHT22;14163;-26.142;27.992;2023-04-25T18:29:19;26.70;96.10
26479;DHT22;14163;-26.142;27.992;2023-04-25T18:31:48;26.60;96.10
26479;DHT22;14163;-26.142;27.992;2023-04-25T18:34:18;26.40;96.60
26479;DHT22;14163;-26.142;27.992;2023-04-25T18:36:50;26.30;96.70
26479;DHT22;14163;-26.142;27.992;2023-04-25T18:39:21;26.40;97.10
26479;DHT22;14163;-26.142;27.992;2023-04-25T18:41:52;26.30;97.00
26479;DHT22;14163;-26.142;27.992;2023-04-25T18:44:23;26.30;97.20
26479;DHT22;14163;-26.142;27.992;2023-04-25T18:46:53;26.30;97.20
26479;DHT22;14163;-26.142;27.992;2023-04-25T18:49:24;26.20;97.30
26479;DHT22;14163;-26.142;27.992;2023-04-25T18:51:53;26.20;97.50
26479;DHT22;14163;-26.142;27.992;2023-04-25T18:54:23;26.30;97.60
26479;DHT22;14163;-26.142;27.992;2023-04-25T18:56:54;26.40;97.80
26479;DHT22;14163;-26.142;27.992;2023-04-25T18:59:26;26.40;98.10
26479;DHT22;14163;-26.142;27.992;2023-04-25T19:01:55;26.30;98.20
26479;DHT22;14163;-26.142;27.992;2023-04-25T19:04:26;26.30;98.40
26479;DHT22;14163;-26.142;27.992;2023-04-25T19:06:55;26.30;98.50
26479;DHT22;14163;-26.142;27.992;2023-04-25T19:09:26;26.30;98.60
26479;DHT22;14163;-26.142;27.992;2023-04-25T19:11:57;26.30;98.80
26479;DHT22;14163;-26.142;27.992;2023-04-25T19:14:26;26.20;99.40
26479;DHT22;14163;-26.142;27.992;2023-04-25T19:16:55;26.20;99.40
26479;DHT22;14163;-26.142;27.992;2023-04-25T19:19:25;26.10;99.60
26479;DHT22;14163;-26.142;27.992;2023-04-25T19:21:55;26.00;99.90
26479;DHT22;14163;-26.142;27.992;2023-04-25T19:24:25;25.80;99.90
26479;DHT22;14163;-26.142;27.992;2023-04-25T19:26:56;25.80;99.90
26479;DHT22;14163;-26.142;27.992;2023-04-25T19:29:25;25.80;99.90
26479;DHT22;14163;-26.142;27.992;2023-04-25T19:31:56;25.80;99.90
26479;DHT22;14163;-26.142;27.992;2023-04-25T19:34:25;25.70;99.90
26479;DHT22;14163;-26.142;27.992;2023-04-25T19:36:54;25.80;99.90